Time;durP1;ratioP1;P1;durP2;ratioP2;P2;SDS_P1;SDS_P2;PMS_P1;PMS_P2;Temp;Humidity;BMP_temperature;BMP_pressure;BME280_temperature;BME280_humidity;BME280_pressure;Samples;Min_cycle;Max_cycle;Signal;HPM_P1;HPM_P2
2022/09/18 00:02:25;;;;;;;;;10.67;7.00;;;;;11.39;63.87;101707.63;5102427;27;47216;-77
2022/09/18 00:04:51;;;;;;;;;7.67;7.33;;;;;11.33;63.89;101704.59;5102891;27;45221;-77
2022/09/18 00:07:17;;;;;;;;;11.00;10.00;;;;;11.28;64.01;101696.25;5103276;27;45169;-77
2022/09/18 00:09:43;;;;;;;;;9.00;9.00;;;;;11.29;64.19;101703.25;5121294;27;45330;-77
2022/09/18 00:12:08;;;;;;;;;9.67;9.67;;;;;11.29;63.90;101699.75;5103074;27;47207;-77
2022/09/18 00:14:34;;;;;;;;;9.00;9.00;;;;;11.24;64.20;101698.41;5121573;27;45375;-77
2022/09/18 00:16:59;;;;;;;;;10.00;9.00;;;;;11.26;64.15;101697.41;5133179;27;45340;-77
2022/09/18 00:19:24;;;;;;;;;4.00;3.00;;;;;11.21;64.36;101696.03;5140471;27;45477;-77
2022/09/18 00:21:50;;;;;;;;;9.67;9.67;;;;;11.19;64.20;101686.53;5122371;27;47170;-77
2022/09/18 00:24:16;;;;;;;;;10.00;10.00;;;;;11.18;64.85;101693.69;5119240;27;45425;-77
2022/09/18 00:26:42;;;;;;;;;9.00;7.67;;;;;11.19;64.91;101698.00;5119841;27;45359;-77
2022/09/18 00:29:10;;;;;;;;;5.33;5.33;;;;;11.17;65.01;101697.34;5132515;27;46416;-77
2022/09/18 00:31:36;;;;;;;;;8.67;8.00;;;;;11.09;65.00;101686.63;5103128;27;47160;-77
2022/09/18 00:34:04;;;;;;;;;7.33;7.33;;;;;11.08;65.26;101700.94;5120715;27;45277;-78
2022/09/18 00:36:30;;;;;;;;;11.00;11.00;;;;;11.04;65.25;101689.75;5138063;27;45359;-77
2022/09/18 00:38:58;;;;;;;;;14.33;14.33;;;;;11.06;65.21;101700.22;5119048;27;46144;-78
2022/09/18 00:41:29;;;;;;;;;11.00;11.00;;;;;11.02;64.99;101697.06;5120484;27;45463;-77
2022/09/18 00:44:33;;;;;;;;;12.00;10.00;;;;;11.06;65.28;101709.06;5120499;27;45412;-78
2022/09/18 00:47:10;;;;;;;;;11.00;10.33;;;;;11.04;65.41;101696.91;5121671;27;45395;-77
2022/09/18 00:49:46;;;;;;;;;9.00;8.67;;;;;11.01;65.59;101699.88;5119031;27;46471;-77
2022/09/18 00:52:14;;;;;;;;;10.67;10.67;;;;;10.92;65.89;101705.09;5125710;27;47234;-77
2022/09/18 00:54:46;;;;;;;;;9.00;9.00;;;;;10.92;65.96;101701.63;5121871;27;45434;-77
2022/09/18 00:57:18;;;;;;;;;14.33;13.00;;;;;10.86;66.11;101709.22;5103138;27;45292;-77
2022/09/18 00:59:47;;;;;;;;;12.00;10.67;;;;;10.80;66.28;101701.00;5121238;27;45391;-77
2022/09/18 01:02:12;;;;;;;;;10.33;9.67;;;;;10.78;66.29;101698.53;5123782;27;45480;-77
2022/09/18 01:04:39;;;;;;;;;9.00;8.33;;;;;10.84;66.20;101697.88;5123858;27;45333;-77
2022/09/18 01:07:20;;;;;;;;;9.00;8.00;;;;;10.83;66.06;101706.00;5119895;27;45471;-77
2022/09/18 01:10:23;;;;;;;;;10.00;8.67;;;;;10.81;66.27;101694.72;5115923;27;45996;-77
2022/09/18 01:12:57;;;;;;;;;9.67;9.67;;;;;10.81;66.10;101700.03;5112974;27;48509;-77
2022/09/18 01:15:40;;;;;;;;;11.00;9.00;;;;;10.70;66.25;101685.13;5129039;27;45428;-77
2022/09/18 01:18:33;;;;;;;;;10.67;10.00;;;;;10.69;66.62;101696.78;5114539;27;45285;-77
2022/09/18 01:21:16;;;;;;;;;9.33;9.33;;;;;10.63;66.76;101692.91;5125427;27;46248;-77
2022/09/18 01:24:06;;;;;;;;;9.33;8.67;;;;;10.68;66.91;101701.25;5130746;27;45387;-77
2022/09/18 01:26:32;;;;;;;;;8.00;6.33;;;;;10.67;66.43;101706.72;5122497;27;45332;-77
2022/09/18 01:29:00;;;;;;;;;8.67;8.67;;;;;10.64;66.80;101702.53;5137306;27;45273;-77
2022/09/18 01:31:33;;;;;;;;;8.33;7.33;;;;;10.56;66.80;101687.34;5123777;27;45657;-77
2022/09/18 01:34:09;;;;;;;;;11.00;11.00;;;;;10.57;66.92;101694.31;5123479;27;45679;-77
2022/09/18 01:36:38;;;;;;;;;8.67;8.67;;;;;10.56;67.03;101700.63;5111102;27;45342;-77
2022/09/18 01:39:20;;;;;;;;;9.00;7.00;;;;;10.55;66.98;101693.66;5142962;27;45368;-77
2022/09/18 01:41:50;;;;;;;;;8.33;8.33;;;;;10.46;67.18;101692.72;5125359;27;47181;-77
2022/09/18 01:44:20;;;;;;;;;10.00;8.00;;;;;10.42;67.08;101674.53;5130321;27;45252;-77
2022/09/18 01:46:48;;;;;;;;;9.00;9.00;;;;;10.44;67.26;101689.34;5110887;27;45829;-77
2022/09/18 01:49:21;;;;;;;;;7.33;7.33;;;;;10.46;67.19;101695.38;5112871;27;45349;-77
2022/09/18 01:51:56;;;;;;;;;10.33;10.00;;;;;10.40;67.36;101685.31;5122860;27;45421;-77
2022/09/18 01:54:29;;;;;;;;;11.00;11.00;;;;;10.36;67.25;101682.09;5123177;27;45269;-77
2022/09/18 01:57:20;;;;;;;;;22.67;17.00;;;;;10.39;67.49;101691.63;5121139;27;45379;-76
2022/09/18 01:59:56;;;;;;;;;19.67;19.67;;;;;10.34;67.83;101681.44;5109714;27;45260;-77
2022/09/18 02:02:42;;;;;;;;;18.00;15.67;;;;;10.35;67.48;101692.88;5113218;27;46066;-76
2022/09/18 02:05:13;;;;;;;;;12.00;9.67;;;;;10.29;67.48;101680.19;5121510;27;48600;-77
2022/09/18 02:07:57;;;;;;;;;13.33;12.00;;;;;10.29;67.77;101685.50;5114529;27;45336;-77
2022/09/18 02:10:25;;;;;;;;;10.33;10.00;;;;;10.20;67.86;101666.84;5121522;27;45415;-78
2022/09/18 02:12:53;;;;;;;;;12.33;12.00;;;;;10.20;68.11;101672.16;5115366;27;47356;-77
2022/09/18 02:15:22;;;;;;;;;9.33;8.00;;;;;10.25;67.78;101679.66;5125717;27;45437;-77
2022/09/18 02:17:50;;;;;;;;;9.00;9.00;;;;;10.26;67.88;101686.66;5131970;27;45380;-77
2022/09/18 02:20:29;;;;;;;;;5.67;5.67;;;;;10.14;67.97;101654.13;5118142;27;45295;-77
2022/09/18 02:22:58;;;;;;;;;10.67;10.00;;;;;10.21;68.21;101673.81;5113896;27;46187;-77
2022/09/18 02:25:31;;;;;;;;;7.00;7.00;;;;;10.13;68.36;101675.53;5122613;27;47181;-77
2022/09/18 02:27:57;;;;;;;;;9.67;9.00;;;;;10.13;68.55;101667.56;5128028;27;45360;-77
2022/09/18 02:30:24;;;;;;;;;9.00;8.00;;;;;10.13;68.73;101676.38;5132117;27;45356;-78
2022/09/18 02:32:54;;;;;;;;;10.00;9.00;;;;;10.06;68.83;101667.34;5122478;27;45527;-77
2022/09/18 02:35:20;;;;;;;;;9.00;8.00;;;;;10.00;68.61;101658.16;5122351;27;45435;-77
2022/09/18 02:38:06;;;;;;;;;7.33;7.00;;;;;10.09;68.90;101670.53;5118246;27;45311;-77
2022/09/18 02:40:40;;;;;;;;;11.00;9.33;;;;;10.03;68.95;101655.16;5115207;27;45696;-77
2022/09/18 02:43:27;;;;;;;;;8.33;8.33;;;;;10.06;68.80;101664.69;5121034;27;47367;-77
2022/09/18 02:46:02;;;;;;;;;8.33;8.00;;;;;9.94;68.56;101651.59;5116904;27;47348;-77
2022/09/18 02:48:53;;;;;;;;;7.00;6.00;;;;;10.02;68.77;101671.25;5124344;27;45319;-76
2022/09/18 02:51:50;;;;;;;;;8.33;8.33;;;;;10.01;68.46;101670.44;5122861;27;45797;-77
2022/09/18 02:54:29;;;;;;;;;9.33;9.33;;;;;9.93;68.80;101660.53;5112310;27;47336;-77
2022/09/18 02:57:07;;;;;;;;;4.00;4.00;;;;;9.94;68.97;101664.88;5121939;27;46400;-76
2022/09/18 02:59:40;;;;;;;;;8.67;7.00;;;;;9.90;68.76;101654.69;5122182;27;45272;-77
2022/09/18 03:02:07;;;;;;;;;8.00;8.00;;;;;9.84;69.29;101664.91;5124043;27;45389;-76
2022/09/18 03:04:32;;;;;;;;;6.67;6.67;;;;;9.84;68.99;101664.91;5124010;27;45980;-77
2022/09/18 03:06:58;;;;;;;;;8.00;8.00;;;;;9.78;69.01;101649.56;5123468;27;45277;-77
2022/09/18 03:09:24;;;;;;;;;7.00;6.67;;;;;9.77;69.45;101660.34;5122303;27;45402;-76
2022/09/18 03:11:50;;;;;;;;;8.00;8.00;;;;;9.73;68.92;101646.53;5122085;27;45279;-77
2022/09/18 03:14:16;;;;;;;;;9.00;9.00;;;;;9.73;69.32;101650.00;5112168;27;46868;-76
2022/09/18 03:16:41;;;;;;;;;8.00;8.00;;;;;9.70;69.71;101650.28;5123261;27;47380;-77
2022/09/18 03:19:07;;;;;;;;;11.00;8.00;;;;;9.68;69.66;101649.63;5103518;27;45749;-76
2022/09/18 03:21:32;;;;;;;;;11.00;8.67;;;;;9.70;69.52;101660.09;5121928;27;45376;-77
2022/09/18 03:23:57;;;;;;;;;14.33;11.33;;;;;9.65;69.86;101655.22;5117628;27;47421;-77
2022/09/18 03:26:23;;;;;;;;;10.33;7.33;;;;;9.65;69.40;101657.88;5120456;27;47058;-78
2022/09/18 03:28:48;;;;;;;;;9.67;9.00;;;;;9.63;69.69;101658.97;5134161;27;45303;-76
2022/09/18 03:31:14;;;;;;;;;8.33;8.33;;;;;9.62;69.69;101657.31;5105199;27;45297;-76
2022/09/18 03:33:40;;;;;;;;;7.00;7.00;;;;;9.60;69.55;101652.16;5113659;27;46067;-77
2022/09/18 03:36:07;;;;;;;;;11.33;11.00;;;;;9.57;69.78;101652.44;5138623;27;47122;-77
2022/09/18 03:38:32;;;;;;;;;9.00;9.00;;;;;9.54;70.00;101642.13;5121794;27;45374;-77
2022/09/18 03:40:58;;;;;;;;;9.67;9.67;;;;;9.44;70.02;101626.25;5121713;27;45685;-77
2022/09/18 03:43:24;;;;;;;;;5.00;5.00;;;;;9.46;70.07;101643.69;5121630;27;45593;-77
2022/09/18 03:45:50;;;;;;;;;7.67;7.67;;;;;9.45;70.19;101633.22;5112130;27;48056;-77
2022/09/18 03:48:15;;;;;;;;;8.00;8.00;;;;;9.46;70.14;101641.03;5120047;27;45466;-77
2022/09/18 03:50:40;;;;;;;;;7.33;7.33;;;;;9.47;70.15;101640.06;5121723;27;45337;-76
2022/09/18 03:53:07;;;;;;;;;10.67;7.67;;;;;9.51;70.13;101629.97;5117151;27;47108;-77
2022/09/18 03:55:34;;;;;;;;;7.67;7.00;;;;;9.53;70.19;101643.94;5121261;27;46384;-77
2022/09/18 03:57:59;;;;;;;;;4.67;4.67;;;;;9.52;70.16;101642.25;5117126;27;45308;-76
2022/09/18 04:00:25;;;;;;;;;10.33;8.33;;;;;9.43;70.70;101624.56;5121447;27;45511;-77
2022/09/18 04:02:51;;;;;;;;;7.00;7.00;;;;;9.47;70.36;101636.56;5121248;27;45538;-76
2022/09/18 04:05:16;;;;;;;;;7.67;6.67;;;;;9.40;70.54;101625.69;5120686;27;45546;-77
2022/09/18 04:07:41;;;;;;;;;9.33;8.33;;;;;9.38;70.76;101632.97;5121156;27;45384;-77
2022/09/18 04:10:07;;;;;;;;;8.67;8.67;;;;;9.42;71.14;101639.66;5117136;27;45454;-77
2022/09/18 04:12:33;;;;;;;;;9.33;9.33;;;;;9.41;71.27;101642.44;5121219;27;45483;-76
2022/09/18 04:14:58;;;;;;;;;7.00;7.00;;;;;9.37;71.06;101639.22;5120837;27;45598;-77
2022/09/18 04:17:24;;;;;;;;;7.00;5.00;;;;;9.35;70.97;101630.59;5129763;27;45353;-77
2022/09/18 04:19:49;;;;;;;;;8.00;8.00;;;;;9.34;71.40;101628.94;5121026;27;45363;-76
2022/09/18 04:22:14;;;;;;;;;8.33;8.33;;;;;9.31;70.75;101622.06;5120346;27;45956;-77
2022/09/18 04:24:40;;;;;;;;;8.67;8.67;;;;;9.29;71.50;101629.34;5131299;27;45424;-77
2022/09/18 04:27:05;;;;;;;;;9.00;8.67;;;;;9.30;71.55;101638.13;5120697;27;45347;-76
2022/09/18 04:29:31;;;;;;;;;7.67;7.67;;;;;9.24;71.78;101639.56;5135472;27;45353;-76
2022/09/18 04:31:57;;;;;;;;;9.33;8.67;;;;;9.16;71.30;101615.56;5112621;27;46859;-77
2022/09/18 04:34:22;;;;;;;;;9.33;9.33;;;;;9.25;71.47;101638.56;5123329;27;46472;-77
2022/09/18 04:36:47;;;;;;;;;8.00;6.67;;;;;9.24;71.49;101641.34;5120710;27;45188;-77
2022/09/18 04:39:13;;;;;;;;;7.67;7.00;;;;;9.20;71.49;101632.88;5120811;27;45536;-77
2022/09/18 04:41:38;;;;;;;;;8.33;7.33;;;;;9.27;71.11;101646.38;5122696;27;47395;-77
2022/09/18 04:44:04;;;;;;;;;9.67;8.00;;;;;9.19;71.44;101637.31;5122919;27;47126;-76
2022/09/18 04:46:29;;;;;;;;;8.00;8.00;;;;;9.25;71.40;101646.53;5122877;27;45307;-76
2022/09/18 04:48:54;;;;;;;;;9.00;7.67;;;;;9.19;71.35;101641.81;5120631;27;45471;-76
2022/09/18 04:51:20;;;;;;;;;8.00;7.00;;;;;9.20;71.73;101651.44;5116350;27;45948;-77
2022/09/18 04:53:45;;;;;;;;;9.67;9.67;;;;;9.13;71.59;101631.78;5109647;27;47462;-77
2022/09/18 04:56:10;;;;;;;;;9.67;9.67;;;;;9.19;71.63;101647.94;5127254;27;45179;-77
2022/09/18 04:58:35;;;;;;;;;7.00;7.00;;;;;9.07;71.80;101638.47;5122170;27;45354;-77
2022/09/18 05:01:01;;;;;;;;;8.67;7.67;;;;;9.15;71.64;101651.00;5129421;27;45416;-77
2022/09/18 05:03:26;;;;;;;;;8.67;7.33;;;;;9.10;71.80;101640.84;5115777;27;46951;-77
2022/09/18 05:05:53;;;;;;;;;10.00;10.00;;;;;9.11;71.64;101647.81;5120357;27;45206;-77
2022/09/18 05:08:19;;;;;;;;;9.00;9.00;;;;;9.10;72.04;101646.16;5120182;27;45342;-78
2022/09/18 05:10:44;;;;;;;;;8.00;8.00;;;;;9.07;72.07;101641.13;5118917;27;46011;-77
2022/09/18 05:13:10;;;;;;;;;8.00;8.00;;;;;9.11;71.94;101645.16;5115441;27;46927;-77
2022/09/18 05:15:35;;;;;;;;;6.67;6.67;;;;;9.08;72.22;101653.41;5120654;27;45346;-77
2022/09/18 05:18:03;;;;;;;;;8.67;7.67;;;;;9.12;72.40;101640.69;5113490;27;45373;-77
2022/09/18 05:20:29;;;;;;;;;9.67;9.67;;;;;9.07;72.47;101652.56;5139295;27;46771;-78
2022/09/18 05:22:55;;;;;;;;;10.00;8.33;;;;;9.04;72.32;101646.72;5130856;27;46244;-77
2022/09/18 05:25:22;;;;;;;;;8.00;7.00;;;;;9.05;72.51;101651.03;5119830;27;45446;-76
2022/09/18 05:27:54;;;;;;;;;7.33;7.33;;;;;9.02;72.35;101652.16;5124163;27;45335;-77
2022/09/18 05:30:20;;;;;;;;;9.67;8.67;;;;;8.93;72.30;101643.25;5118605;27;45527;-77
2022/09/18 05:33:00;;;;;;;;;8.67;7.00;;;;;8.93;72.22;101635.28;5118712;27;47120;-78
2022/09/18 05:35:27;;;;;;;;;9.67;9.67;;;;;9.04;72.01;101655.50;5112396;27;45606;-77
2022/09/18 05:37:55;;;;;;;;;9.00;9.00;;;;;9.03;71.83;101652.97;5123003;27;45267;-75
2022/09/18 05:40:22;;;;;;;;;10.00;9.33;;;;;9.04;72.42;101652.84;5110667;27;46573;-77
2022/09/18 05:42:49;;;;;;;;;8.33;8.33;;;;;8.99;72.37;101641.00;5124577;27;46603;-76
2022/09/18 05:45:15;;;;;;;;;10.67;7.00;;;;;9.03;72.10;101651.19;5109364;27;45424;-76
2022/09/18 05:47:41;;;;;;;;;9.00;9.00;;;;;8.99;72.54;101641.00;5130209;27;45384;-77
2022/09/18 05:50:08;;;;;;;;;11.33;11.33;;;;;8.95;72.23;101649.22;5124813;27;46079;-76
2022/09/18 05:52:33;;;;;;;;;9.00;9.00;;;;;9.06;72.32;101663.31;5131616;27;45359;-76
2022/09/18 05:54:58;;;;;;;;;11.67;9.67;;;;;8.99;72.33;101654.25;5122773;27;45293;-77
2022/09/18 05:57:24;;;;;;;;;9.00;8.67;;;;;9.01;72.54;101654.97;5125547;27;45318;-76
2022/09/18 05:59:49;;;;;;;;;10.33;10.00;;;;;9.05;72.18;101659.84;5123635;27;46151;-76
2022/09/18 06:02:15;;;;;;;;;8.00;8.00;;;;;9.03;72.20;101650.31;5123059;27;46454;-77
2022/09/18 06:04:40;;;;;;;;;10.00;8.67;;;;;9.04;72.13;101665.28;5123036;27;45312;-76
2022/09/18 06:07:06;;;;;;;;;6.33;6.33;;;;;8.99;72.82;101667.50;5123302;27;45343;-76
2022/09/18 06:09:31;;;;;;;;;7.00;6.00;;;;;8.93;72.68;101667.09;5139214;27;45329;-76
2022/09/18 06:11:56;;;;;;;;;11.00;10.33;;;;;8.95;72.72;101672.28;5142894;27;47874;-77
2022/09/18 06:14:22;;;;;;;;;10.33;8.33;;;;;8.91;73.21;101655.78;5142390;27;45253;-77
2022/09/18 06:16:48;;;;;;;;;9.67;9.33;;;;;9.00;73.05;101672.66;5132577;27;45419;-75
2022/09/18 06:19:13;;;;;;;;;8.33;8.00;;;;;8.98;73.22;101664.00;5129836;27;45341;-75
2022/09/18 06:21:40;;;;;;;;;8.33;7.33;;;;;9.08;73.72;101686.09;5122969;27;46580;-76
2022/09/18 06:24:05;;;;;;;;;9.00;9.00;;;;;9.03;73.80;101672.38;5118548;27;45665;-76
2022/09/18 06:26:31;;;;;;;;;9.33;9.00;;;;;9.08;74.22;101685.22;5111090;27;45453;-77
2022/09/18 06:28:56;;;;;;;;;10.33;9.33;;;;;8.99;73.86;101670.16;5124685;27;46084;-76
2022/09/18 06:31:22;;;;;;;;;8.33;8.33;;;;;9.05;73.44;101678.41;5137738;27;45327;-77
2022/09/18 06:33:48;;;;;;;;;8.00;8.00;;;;;9.06;73.98;101672.13;5124722;27;45737;-75
2022/09/18 06:36:13;;;;;;;;;9.00;9.00;;;;;9.16;73.96;101684.53;5122879;27;45357;-77
2022/09/18 06:38:39;;;;;;;;;11.33;11.33;;;;;9.16;74.03;101695.97;5122431;27;45312;-77
2022/09/18 06:41:05;;;;;;;;;9.33;9.33;;;;;9.17;73.85;101686.19;5117654;27;48092;-77
2022/09/18 06:43:30;;;;;;;;;13.33;10.33;;;;;9.25;73.97;101685.50;5104439;27;46085;-77
2022/09/18 06:45:56;;;;;;;;;9.00;9.00;;;;;9.27;74.46;101687.00;5122613;27;45307;-77
2022/09/18 06:48:23;;;;;;;;;12.67;11.00;;;;;9.13;74.76;101663.59;5122234;27;45366;-78
2022/09/18 06:50:53;;;;;;;;;13.67;10.33;;;;;9.27;74.41;101667.59;5122121;27;45363;-80
2022/09/18 06:53:19;;;;;;;;;13.33;12.33;;;;;9.28;74.90;101672.75;5133829;27;45434;-79
2022/09/18 06:55:47;;;;;;;;;12.00;12.00;;;;;9.25;74.82;101651.81;5142422;27;45344;-79
2022/09/18 06:58:12;;;;;;;;;8.67;8.67;;;;;9.37;74.78;101662.28;5136457;27;45248;-80
2022/09/18 07:00:37;;;;;;;;;10.67;9.33;;;;;9.44;75.10;101660.72;5136621;27;46724;-81
2022/09/18 07:03:03;;;;;;;;;14.33;12.33;;;;;9.62;75.11;101674.09;5121121;27;45699;-81
2022/09/18 07:05:30;;;;;;;;;10.33;10.33;;;;;9.66;75.00;101653.38;5153455;27;45438;-78
2022/09/18 07:07:56;;;;;;;;;11.67;10.67;;;;;9.95;74.92;101677.19;5141611;27;45432;-79
2022/09/18 07:10:22;;;;;;;;;12.00;11.00;;;;;9.96;75.33;101665.56;5122560;27;47224;-79
2022/09/18 07:12:47;;;;;;;;;13.00;10.33;;;;;10.03;75.15;101660.47;5124101;27;45619;-78
2022/09/18 07:15:17;;;;;;;;;12.00;12.00;;;;;10.09;75.45;101667.03;5127346;27;45321;-78
2022/09/18 07:17:44;;;;;;;;;10.67;10.00;;;;;10.24;75.70;101680.66;5082059;27;45373;-78
2022/09/18 07:20:11;;;;;;;;;11.33;11.33;;;;;10.32;75.70;101680.75;5017113;27;46578;-79
2022/09/18 07:22:36;;;;;;;;;12.00;10.67;;;;;10.44;76.03;101686.69;5102763;27;45437;-77
2022/09/18 07:25:02;;;;;;;;;11.00;10.00;;;;;10.55;76.03;101696.31;5008200;27;45814;-76
2022/09/18 07:27:28;;;;;;;;;12.00;12.00;;;;;10.67;76.21;101685.44;5093279;27;46823;-78
2022/09/18 07:29:53;;;;;;;;;20.00;18.67;;;;;10.79;76.08;101686.03;5051351;28;45358;-78
2022/09/18 07:32:21;;;;;;;;;14.00;13.00;;;;;10.92;76.09;101685.69;5050131;27;45300;-78
2022/09/18 07:34:47;;;;;;;;;11.67;10.67;;;;;11.08;75.84;101680.47;5037106;27;45375;-78
2022/09/18 07:37:12;;;;;;;;;14.67;14.00;;;;;11.15;75.86;101679.84;5051501;27;45211;-78
2022/09/18 07:39:37;;;;;;;;;10.33;10.33;;;;;11.23;75.64;101675.41;5038073;27;45412;-79
2022/09/18 07:42:03;;;;;;;;;9.67;9.67;;;;;11.37;75.33;101673.19;5103562;27;45252;-79
2022/09/18 07:44:30;;;;;;;;;11.33;11.00;;;;;11.54;75.47;101682.13;5119266;27;45342;-78
2022/09/18 07:46:58;;;;;;;;;12.00;11.67;;;;;11.65;75.11;101682.84;5048308;27;45252;-78
2022/09/18 07:49:23;;;;;;;;;12.00;12.00;;;;;11.73;75.04;101686.38;5049660;28;45652;-78
2022/09/18 07:51:48;;;;;;;;;13.33;12.00;;;;;11.84;74.81;101687.94;5062520;27;44685;-78
2022/09/18 07:54:14;;;;;;;;;15.33;14.00;;;;;11.96;74.21;101688.47;5045622;27;45199;-79
2022/09/18 07:56:39;;;;;;;;;11.00;9.00;;;;;12.08;74.14;101683.72;5032134;27;46133;-80
2022/09/18 07:59:04;;;;;;;;;13.67;13.67;;;;;12.12;73.92;101678.88;5032455;27;51679;-79
2022/09/18 08:01:32;;;;;;;;;14.67;12.67;;;;;12.22;73.72;101681.44;5037081;27;45340;-78
2022/09/18 08:03:57;;;;;;;;;11.00;11.00;;;;;12.37;73.39;101698.47;5020317;27;45726;-79
2022/09/18 08:06:23;;;;;;;;;10.33;10.00;;;;;12.46;73.40;101687.84;5022152;27;45327;-76
2022/09/18 08:08:48;;;;;;;;;12.67;11.67;;;;;12.53;73.48;101674.66;5049472;27;48165;-75
2022/09/18 08:11:13;;;;;;;;;17.67;14.00;;;;;12.63;73.59;101678.00;5018588;27;45317;-77
2022/09/18 08:13:39;;;;;;;;;12.00;12.00;;;;;12.69;73.16;101677.34;5026176;27;45448;-76
2022/09/18 08:16:04;;;;;;;;;13.00;13.00;;;;;12.83;72.88;101691.03;5118726;27;46342;-76
2022/09/18 08:18:30;;;;;;;;;14.33;10.67;;;;;12.85;73.20;101679.22;5115289;27;45350;-75
2022/09/18 08:20:56;;;;;;;;;11.67;11.67;;;;;13.03;72.59;101688.03;5100097;27;45391;-75
2022/09/18 08:23:21;;;;;;;;;14.33;14.33;;;;;13.08;72.62;101683.84;5099708;27;45376;-82
2022/09/18 08:25:46;;;;;;;;;13.00;12.00;;;;;13.11;72.75;101664.03;5085100;27;47392;-82
2022/09/18 08:28:12;;;;;;;;;11.67;9.67;;;;;13.28;72.97;101686.19;5107834;27;46014;-82
2022/09/18 08:30:38;;;;;;;;;11.00;10.00;;;;;13.32;72.71;101676.81;5107520;27;45231;-82
2022/09/18 08:33:06;;;;;;;;;12.33;11.33;;;;;13.52;72.95;101694.38;5100516;27;45157;-82
2022/09/18 08:35:32;;;;;;;;;12.67;12.33;;;;;13.58;72.22;101688.31;5093410;27;47342;-82
2022/09/18 08:37:58;;;;;;;;;9.00;9.00;;;;;13.68;72.20;101682.78;5100839;27;47184;-82
2022/09/18 08:40:36;;;;;;;;;11.00;10.00;;;;;13.80;71.60;101696.63;5118037;27;45409;-82
2022/09/18 08:43:07;;;;;;;;;11.67;11.33;;;;;13.89;71.31;101692.91;5101527;27;45458;-81
2022/09/18 08:45:55;;;;;;;;;9.67;9.67;;;;;14.00;70.86;101689.84;5090914;27;46987;-82
2022/09/18 08:48:27;;;;;;;;;8.33;8.33;;;;;14.06;70.42;101676.78;5082310;27;47386;-82
2022/09/18 08:51:05;;;;;;;;;9.00;8.00;;;;;14.11;70.12;101669.09;5080695;27;45803;-83
2022/09/18 08:53:38;;;;;;;;;4.33;4.00;;;;;14.33;69.88;101679.97;5099561;27;45283;-82
2022/09/18 08:56:14;;;;;;;;;8.00;8.00;;;;;14.42;69.69;101686.13;5099992;27;45620;-82
2022/09/18 08:58:55;;;;;;;;;8.00;7.00;;;;;14.47;69.30;101673.06;5099699;27;45731;-82
2022/09/18 09:01:30;;;;;;;;;9.00;8.00;;;;;14.58;68.89;101671.81;5092478;27;45882;-82
2022/09/18 09:04:02;;;;;;;;;9.00;9.00;;;;;14.73;68.50;101680.72;5101883;27;45258;-82
2022/09/18 09:06:58;;;;;;;;;8.00;7.67;;;;;14.82;67.97;101672.66;5101885;27;47244;-82
2022/09/18 09:09:55;;;;;;;;;8.33;7.33;;;;;14.92;67.54;101677.75;5091873;27;47203;-83
2022/09/18 09:12:36;;;;;;;;;6.00;6.00;;;;;14.97;67.36;101676.19;5101966;27;45259;-83
2022/09/18 09:15:20;;;;;;;;;5.67;5.67;;;;;14.96;66.78;101655.81;5087107;27;45322;-82
2022/09/18 09:17:55;;;;;;;;;6.00;4.33;;;;;15.17;66.42;101673.03;5052595;27;46023;-82
2022/09/18 09:20:44;;;;;;;;;6.00;6.00;;;;;15.27;65.94;101673.59;5012018;27;48277;-82
2022/09/18 09:23:33;;;;;;;;;5.00;5.00;;;;;15.42;65.86;101667.44;5010852;28;45455;-83
2022/09/18 09:26:13;;;;;;;;;7.33;5.00;;;;;15.50;65.60;101661.97;5007454;27;45417;-82
2022/09/18 09:28:48;;;;;;;;;6.00;5.33;;;;;15.60;64.61;101656.34;5056961;27;46450;-82
2022/09/18 09:31:16;;;;;;;;;5.33;5.33;;;;;15.72;64.92;101659.41;5020664;27;47163;-83
2022/09/18 09:34:11;;;;;;;;;4.33;2.67;;;;;15.80;63.66;101654.94;5081163;27;45297;-83
2022/09/18 09:36:39;;;;;;;;;3.33;3.00;;;;;15.97;62.54;101655.59;5032400;28;45337;-83
2022/09/18 09:39:10;;;;;;;;;1.00;1.00;;;;;16.10;61.41;101658.41;5013728;28;46454;-83
2022/09/18 09:41:40;;;;;;;;;2.00;1.00;;;;;16.21;59.33;101657.09;5037352;27;48347;-81
2022/09/18 09:44:39;;;;;;;;;2.67;2.00;;;;;16.39;59.10;101645.09;5037475;27;45383;-82
2022/09/18 09:47:14;;;;;;;;;3.00;3.00;;;;;16.55;58.13;101659.31;5009701;27;45259;-82
2022/09/18 09:49:55;;;;;;;;;0.00;0.00;;;;;16.69;56.04;101657.56;5004877;27;46180;-83
2022/09/18 09:52:24;;;;;;;;;2.33;2.33;;;;;16.84;57.10;101665.53;5018896;27;45410;-82
2022/09/18 09:54:55;;;;;;;;;2.00;2.00;;;;;16.93;56.63;101650.94;5014773;27;45659;-82
2022/09/18 09:57:35;;;;;;;;;3.00;2.33;;;;;17.07;55.98;101659.97;5019152;27;45243;-83
2022/09/18 10:00:13;;;;;;;;;2.33;2.33;;;;;17.17;55.08;101651.56;5015015;27;47357;-82
2022/09/18 10:03:24;;;;;;;;;3.00;3.00;;;;;17.32;55.10;101642.56;5018644;27;45548;-83
2022/09/18 10:05:56;;;;;;;;;1.67;1.67;;;;;17.51;54.05;101639.16;5018714;27;45170;-82
2022/09/18 10:08:31;;;;;;;;;1.00;1.00;;;;;17.64;53.81;101646.47;5014734;27;45386;-82
2022/09/18 10:11:01;;;;;;;;;2.00;2.00;;;;;17.75;53.85;101645.06;5105729;27;47043;-82
2022/09/18 10:13:34;;;;;;;;;2.00;2.00;;;;;17.98;53.11;101646.59;5015866;27;47028;-79
2022/09/18 10:16:07;;;;;;;;;2.00;2.00;;;;;18.15;50.65;101644.41;5049986;27;45400;-79
2022/09/18 10:18:45;;;;;;;;;4.67;4.67;;;;;18.30;51.84;101632.63;5045614;27;45374;-78
2022/09/18 10:21:27;;;;;;;;;4.00;3.00;;;;;18.42;51.30;101633.69;5018016;27;45433;-79
2022/09/18 10:24:16;;;;;;;;;5.00;5.00;;;;;18.60;49.72;101637.63;5017538;27;47077;-79
2022/09/18 10:26:47;;;;;;;;;2.33;2.33;;;;;18.77;50.87;101632.66;5020057;27;45577;-79
2022/09/18 10:29:14;;;;;;;;;10.00;10.00;;;;;18.87;49.95;101626.03;5032605;27;45614;-80
2022/09/18 10:31:47;;;;;;;;;3.00;3.00;;;;;19.07;50.02;101630.56;4989816;27;45394;-79
2022/09/18 10:34:32;;;;;;;;;3.00;3.00;;;;;19.20;49.84;101627.88;5027943;27;45626;-79
2022/09/18 10:36:58;;;;;;;;;3.00;3.00;;;;;19.31;49.20;101610.25;4999387;27;45370;-79
2022/09/18 10:39:26;;;;;;;;;4.67;4.67;;;;;19.44;48.55;101622.84;5017740;27;45235;-80
2022/09/18 10:41:56;;;;;;;;;3.33;3.33;;;;;19.54;47.04;101627.78;5018345;27;45204;-81
2022/09/18 10:44:47;;;;;;;;;3.00;3.00;;;;;19.62;47.93;101614.06;4994730;27;47225;-79
2022/09/18 10:47:15;;;;;;;;;4.00;4.00;;;;;19.72;47.94;101618.19;5018785;27;46152;-80
2022/09/18 10:49:51;;;;;;;;;5.33;5.33;;;;;19.79;47.13;101625.19;5006841;27;45460;-81
2022/09/18 10:52:34;;;;;;;;;4.00;4.00;;;;;19.88;47.69;101616.84;5019258;27;46004;-79
2022/09/18 10:55:06;;;;;;;;;3.00;3.00;;;;;20.10;47.23;101624.63;5008805;27;48133;-80
2022/09/18 10:57:37;;;;;;;;;3.00;3.00;;;;;20.27;46.29;101624.94;5016361;27;45255;-79
2022/09/18 11:00:23;;;;;;;;;3.00;3.00;;;;;20.34;46.78;101606.00;5008535;27;45344;-79
2022/09/18 11:03:13;;;;;;;;;4.00;4.00;;;;;20.36;44.71;101612.84;5034006;27;45494;-79
2022/09/18 11:05:49;;;;;;;;;4.33;4.33;;;;;20.47;45.46;101621.28;5017399;27;46610;-80
2022/09/18 11:08:18;;;;;;;;;4.67;4.67;;;;;20.40;44.39;101616.75;5017754;27;45277;-78
2022/09/18 11:10:56;;;;;;;;;6.33;5.00;;;;;20.33;43.28;101604.34;5017842;27;45318;-79
2022/09/18 11:13:27;;;;;;;;;4.00;4.00;;;;;20.39;45.08;101606.19;5006084;27;47315;-80
2022/09/18 11:15:56;;;;;;;;;4.00;2.67;;;;;20.48;44.29;101610.28;5038954;27;45503;-78
2022/09/18 11:18:24;;;;;;;;;4.67;4.00;;;;;20.57;45.11;101608.13;5008703;27;45758;-79
2022/09/18 11:20:51;;;;;;;;;5.00;5.00;;;;;20.70;44.87;101604.47;5019338;27;45505;-79
2022/09/18 11:23:28;;;;;;;;;5.67;4.00;;;;;20.93;43.03;101597.66;5094850;27;46048;-81
2022/09/18 11:26:14;;;;;;;;;4.00;4.00;;;;;21.13;43.67;101602.03;5019315;27;48277;-79
2022/09/18 11:28:39;;;;;;;;;4.00;4.00;;;;;21.17;43.18;101603.22;5037387;27;45339;-78
2022/09/18 11:31:18;;;;;;;;;3.33;3.33;;;;;21.40;44.23;101599.00;5015664;27;45422;-75
2022/09/18 11:34:01;;;;;;;;;3.00;3.00;;;;;21.51;42.49;101592.84;5006465;27;47052;-75
2022/09/18 11:36:49;;;;;;;;;4.33;4.33;;;;;21.59;42.98;101583.59;5004729;27;46953;-75
2022/09/18 11:39:21;;;;;;;;;5.00;4.00;;;;;21.69;43.31;101578.47;5036355;27;45260;-76
2022/09/18 11:41:48;;;;;;;;;4.67;4.00;;;;;21.91;42.60;101585.28;5030534;27;45365;-76